Latest Weather Observations for Forrest

IDW60801

Issued at 12:05 pm WST Wednesday 16 April 2014 (issued every 30 minutes, with the page automatically refreshed every 10 minutes)

About weather observations | Map of weather stations | Latest weather observations for WA | Other Formats
Station Details ID: 011052 Name: FORREST Lat: -30.85 Lon: 128.11 Height: 159.0 m
Data from the previous 72 hours. | See also: Recent months at Forrest
Date/Time
WST
Temp
°C
App
Temp
°C
Dew
Point
Rel
Hum
%
Delta-T
°C
Wind Press
QNH
hPa
Press
MSL
hPa
Rain
since 9 am
mm
Dir
 
Spd
km/h
Gust
km/h
Spd
kts
Gust
kts
16/12:00pm 27.0 24.2 8.4 31 10.1 W 13 20 7 11 1020.2 1019.8 0.0
16/11:30am 25.8 22.5 7.9 32 9.6 WSW 15 20 8 11 1020.8 - 0.0
16/11:00am 25.7 22.4 8.2 33 9.5 WNW 15 22 8 12 1021.2 - 0.0
16/10:30am 25.6 21.9 8.1 33 9.4 WNW 17 26 9 14 1021.5 - 0.0
16/10:00am 24.8 21.3 8.7 36 8.7 WNW 17 24 9 13 1021.7 - 0.0
16/09:30am 23.5 19.8 9.5 41 7.6 NW 19 24 10 13 1021.9 - 0.0
16/09:00am 22.6 19.5 10.4 46 6.7 NNW 17 24 9 13 1022.1 1021.8 0.0
16/08:30am 21.2 18.3 11.0 52 5.7 NNW 17 20 9 11 1022.1 - 0.0
16/08:00am 19.1 17.2 10.6 58 4.6 NNW 11 15 6 8 1022.1 - 0.0
16/07:30am 16.4 14.4 10.3 67 3.2 NNW 11 13 6 7 1022.1 - 0.0
16/07:00am 13.5 14.2 12.1 91 0.8 CALM 0 0 0 0 1021.9 - 0.0
16/06:30am 10.9 11.1 10.6 98 0.2 CALM 0 0 0 0 1021.5 - 0.0
16/06:00am 9.5 9.3 9.2 98 0.1 N 0 0 0 0 1021.3 1020.9 0.0
16/05:30am 9.2 9.0 8.9 98 0.1 CALM 0 2 0 1 1020.9 - 0.0
16/05:00am 9.4 9.2 9.1 98 0.1 CALM 0 0 0 0 1020.7 - 0.0
16/04:30am 9.5 8.0 9.0 97 0.2 NNE 7 9 4 5 1020.1 - 0.0
16/04:00am 9.7 7.3 8.5 92 0.6 N 11 13 6 7 1020.0 - 0.0
16/03:30am 10.7 8.5 7.8 82 1.4 N 9 11 5 6 1020.2 - 0.0
16/03:00am 11.0 9.0 7.3 78 1.8 N 7 7 4 4 1020.1 1019.7 0.0
16/02:30am 11.2 9.2 7.1 76 2.0 N 7 9 4 5 1020.0 - 0.0
16/02:00am 10.6 8.0 7.7 82 1.4 NNE 11 15 6 8 1020.0 - 0.0
16/01:30am 10.9 8.3 7.8 81 1.5 NNE 11 15 6 8 1020.2 - 0.0
16/01:00am 11.2 8.8 7.1 76 2.0 NNE 9 13 5 7 1020.9 - 0.0
16/12:30am 11.2 8.8 7.1 76 2.0 NNE 9 11 5 6 1021.1 - 0.0
16/12:00am 12.0 9.6 7.1 72 2.4 NE 9 11 5 6 1021.2 1020.8 0.0
 
Date/Time
WST
Temp
°C
App
Temp
°C
Dew
Point
Rel
Hum
%
Delta-T
°C
Wind Press
QNH
hPa
Press
MSL
hPa
Rain
since 9 am
mm
Dir
 
Spd
km/h
Gust
km/h
Spd
kts
Gust
kts
15/11:30pm 12.2 9.5 7.5 73 2.3 ENE 11 15 6 8 1021.3 - 0.0
15/11:00pm 12.5 10.8 8.4 76 2.0 E 7 11 4 6 1021.5 - 0.0
15/10:30pm 12.4 10.8 8.7 78 1.9 N 7 7 4 4 1021.7 - 0.0
15/10:00pm 13.1 12.0 8.4 73 2.3 NNE 4 9 2 5 1021.7 - 0.0
15/09:30pm 14.9 13.2 8.4 65 3.3 NW 7 9 4 5 1021.7 - 0.0
15/09:00pm 15.5 15.1 8.3 62 3.7 CALM 0 0 0 0 1021.6 1021.2 0.0
15/08:30pm 15.5 14.4 8.3 62 3.7 N 4 7 2 4 1021.6 - 0.0
15/08:00pm 16.5 14.9 8.7 60 4.0 N 7 7 4 4 1021.6 - 0.0
15/07:30pm 17.1 15.7 9.0 59 4.2 NNE 6 7 3 4 1021.5 - 0.0
15/07:00pm 18.1 17.9 8.9 55 4.8 CALM 0 0 0 0 1021.3 - 0.0
15/06:30pm 18.6 18.1 9.4 55 4.9 E 2 6 1 3 1020.9 - 0.0
15/06:00pm 19.7 19.6 9.6 52 5.4 CALM 0 2 0 1 1020.6 1020.2 0.0
15/05:30pm 20.8 20.4 8.4 45 6.5 CALM 0 0 0 0 1020.7 - 0.0
15/05:00pm 22.3 21.4 7.7 39 7.7 E 2 6 1 3 1020.6 - 0.0
15/04:30pm 23.2 22.0 8.1 38 8.0 NE 4 7 2 4 1020.5 - 0.0
15/04:00pm 23.7 22.9 8.2 37 8.3 E 2 7 1 4 1020.5 - 0.0
15/03:30pm 23.8 22.3 8.6 38 8.2 E 6 9 3 5 1020.5 - 0.0
15/03:00pm 24.1 22.6 8.5 37 8.4 WNW 6 9 3 5 1020.8 1020.4 0.0
15/02:30pm 24.0 23.4 8.8 38 8.2 N 2 9 1 5 1020.9 - 0.0
15/02:00pm 23.0 21.6 9.4 42 7.4 SSE 7 11 4 6 1020.9 - 0.0
15/01:30pm 23.0 21.6 9.4 42 7.4 SSE 7 13 4 7 1021.0 - 0.0
15/01:00pm 23.0 21.5 9.0 41 7.6 NNE 7 17 4 9 1021.1 - 0.0
15/12:30pm 21.9 20.1 9.4 45 6.8 NE 9 15 5 8 1021.4 - 0.0
15/12:00pm 21.6 20.0 10.1 48 6.3 NNE 9 15 5 8 1021.9 1021.6 0.0
15/11:30am 20.9 18.7 9.5 48 6.1 NE 11 20 6 11 1022.5 - 0.0
15/11:00am 20.6 18.3 10.4 52 5.6 NE 13 20 7 11 1023.0 - 0.0
15/10:30am 20.0 17.3 10.4 54 5.2 N 15 20 8 11 1023.4 - 0.0
15/10:00am 19.1 17.1 11.4 61 4.3 NE 13 20 7 11 1024.0 - 0.0
15/09:30am 18.5 16.6 11.8 65 3.7 NE 13 19 7 10 1024.4 - 0.0
15/09:00am 17.0 15.7 14.8 87 1.3 NNE 15 22 8 12 1024.7 1024.4 0.0
15/08:30am 15.5 - 15.7 - - NNE 13 17 7 9 1025.0 - 0.0
15/08:00am 13.5 - 13.8 - - NNE 11 13 6 7 1025.0 - 0.0
15/07:30am 13.4 - 13.6 - - ENE 13 17 7 9 1024.9 - 0.0
15/07:00am 12.2 - 12.4 - - ENE 7 9 4 5 1024.1 - 0.0
15/06:30am 11.5 - 11.7 - - CALM 0 0 0 0 1024.1 - 0.0
15/06:00am 11.1 - 11.2 - - E 7 7 4 4 1023.8 1023.5 0.0
15/05:30am 11.1 - 11.2 - - ESE 7 7 4 4 1023.6 - 0.0
15/05:00am 11.5 - 11.7 - - SE 7 7 4 4 1023.7 - 0.0
15/04:30am 12.2 - 12.4 - - SE 6 7 3 4 1023.7 - 0.0
15/04:00am 13.0 - 13.2 - - CALM 0 0 0 0 1023.4 - 0.0
15/03:30am 12.9 - 13.1 - - ENE 6 6 3 3 1023.2 - 0.0
15/03:00am 13.3 - 13.5 - - E 7 9 4 5 1023.3 1023.0 0.0
15/02:30am 14.2 - 14.4 - - ESE 7 9 4 5 1023.7 - 0.0
15/02:00am 13.9 - 14.1 - - SSE 9 15 5 8 1024.3 - 0.0
15/01:30am 13.8 - 14.0 - - ESE 11 13 6 7 1024.3 - 0.0
15/01:00am 13.8 - 14.0 - - ESE 11 13 6 7 1024.5 - 0.0
15/12:30am 12.8 - 13.0 - - ESE 11 13 6 7 1024.2 - 0.0
15/12:00am 12.1 10.7 12.1 100 0.0 SE 11 11 6 6 1024.5 1024.2 0.0
 
Date/Time
WST
Temp
°C
App
Temp
°C
Dew
Point
Rel
Hum
%
Delta-T
°C
Wind Press
QNH
hPa
Press
MSL
hPa
Rain
since 9 am
mm
Dir
 
Spd
km/h
Gust
km/h
Spd
kts
Gust
kts
14/11:30pm 12.7 11.5 12.7 100 0.0 SE 11 13 6 7 1024.9 - 0.0
14/11:00pm 13.2 11.7 13.2 100 0.0 SE 13 13 7 7 1024.7 - 0.0
14/10:30pm 13.9 12.6 13.7 99 0.1 ESE 13 15 7 8 1024.4 - 0.0
14/10:00pm 14.5 13.0 14.2 98 0.2 ESE 15 20 8 11 1024.3 - 0.0
14/09:30pm 15.0 14.0 14.7 98 0.2 SE 13 20 7 11 1025.2 - 0.0
14/09:00pm 15.6 14.7 14.8 95 0.5 SE 13 15 7 8 1025.1 1024.7 0.0
14/08:30pm 16.7 14.7 13.8 83 1.7 SE 17 20 9 11 1025.2 - 0.0
14/08:00pm 17.1 14.7 13.8 81 1.9 ESE 19 22 10 12 1024.9 - 0.0
14/07:30pm 16.7 15.1 14.0 84 1.5 SE 15 20 8 11 1024.6 - 0.0
14/07:00pm 17.6 14.9 13.5 77 2.3 SE 20 32 11 17 1024.4 - 0.0
14/06:30pm 18.2 14.7 13.3 73 2.8 SE 24 32 13 17 1024.4 - 0.0
14/06:00pm 19.0 15.5 12.3 65 3.7 SSE 22 33 12 18 1024.2 1023.9 0.0
14/05:30pm 19.6 16.4 11.9 61 4.3 SSE 20 32 11 17 1023.9 - 0.0
14/05:00pm 19.8 16.4 11.3 58 4.7 SE 20 30 11 16 1023.5 - 0.0
14/04:30pm 20.5 17.1 11.4 56 5.1 SE 20 28 11 15 1023.0 - 0.0
14/04:00pm 20.7 17.5 11.9 57 4.9 SE 20 26 11 14 1022.7 - 0.0
14/03:30pm 21.0 17.6 12.4 58 4.9 SE 22 26 12 14 1022.7 - 0.0
14/03:00pm 21.3 18.2 12.2 56 5.1 SE 20 26 11 14 1022.7 1022.4 0.0
14/02:30pm 21.3 18.1 11.9 55 5.3 SE 20 30 11 16 1022.7 - 0.0
14/02:00pm 21.2 18.0 11.8 55 5.3 SE 20 30 11 16 1022.8 - 0.0
14/01:30pm 21.4 18.3 12.3 56 5.2 ESE 20 30 11 16 1022.7 - 0.0
14/01:00pm 21.4 18.7 12.8 58 4.9 SE 19 28 10 15 1022.9 - 0.0
14/12:30pm 21.0 17.9 11.6 55 5.3 SE 19 26 10 14 1023.4 - 0.0
14/12:00pm 20.8 17.7 11.7 56 5.1 SE 19 28 10 15 1024.0 1023.7 0.0
14/11:30am 20.4 17.0 11.3 56 5.0 SE 20 30 11 16 1024.3 - 0.0
14/11:00am 20.6 16.7 10.7 53 5.4 E 22 30 12 16 1024.5 - 0.0
14/10:30am 21.3 17.2 11.6 54 5.4 E 24 37 13 20 1024.6 - 0.0
14/10:00am 19.6 16.3 11.6 60 4.4 E 20 32 11 17 1024.9 - 0.0
14/09:30am 18.9 15.9 11.9 64 3.9 ESE 19 26 10 14 1025.2 - 0.0
14/09:00am 17.4 15.6 16.1 92 0.8 E 20 26 11 14 1025.6 1025.2 0.2
14/08:30am 16.0 - 16.2 - - ESE 9 13 5 7 1025.7 - 0.2
14/08:00am 15.3 - 15.6 - - E 11 15 6 8 1025.4 - 0.2
14/07:30am 14.3 - 14.6 - - SSE 9 11 5 6 1025.7 - 0.2
14/07:00am 13.2 - 13.5 - - SSE 9 13 5 7 1025.0 - 0.2
14/06:30am 11.9 - 12.1 - - SSE 9 13 5 7 1024.4 - 0.2
14/06:00am 12.0 - 12.2 - - SSE 9 9 5 5 1024.1 1023.8 0.2
14/05:30am 13.2 - 13.4 - - SE 11 13 6 7 1024.1 - 0.2
14/05:00am 13.3 - 13.5 - - ESE 13 17 7 9 1024.0 - 0.2
14/04:30am 11.4 - 11.6 - - SE 13 13 7 7 1023.8 - 0.0
14/04:00am 11.5 - 11.7 - - S 9 13 5 7 1024.0 - 0.0
14/03:30am 12.0 - 12.2 - - SSE 13 17 7 9 1023.8 - 0.0
14/03:00am 11.9 - 12.1 - - SSE 11 13 6 7 1023.6 1023.3 0.0
14/02:30am 12.1 - 12.3 - - S 11 13 6 7 1023.7 - 0.0
14/02:00am 11.9 - 12.1 - - SE 9 13 5 7 1023.8 - 0.0
14/01:30am 12.2 - 12.4 - - SE 9 11 5 6 1023.9 - 0.0
14/01:00am 12.4 - 12.6 - - ESE 7 9 4 5 1024.0 - 0.0
14/12:30am 12.9 - 13.1 - - SE 11 13 6 7 1024.1 - 0.0
14/12:00am 13.1 - 13.3 - - SE 11 13 6 7 1024.0 1023.7 0.0
 
Date/Time
WST
Temp
°C
App
Temp
°C
Dew
Point
Rel
Hum
%
Delta-T
°C
Wind Press
QNH
hPa
Press
MSL
hPa
Rain
since 9 am
mm
Dir
 
Spd
km/h
Gust
km/h
Spd
kts
Gust
kts
13/11:30pm 13.4 - 13.6 - - SE 13 15 7 8 1023.8 - 0.0
13/11:00pm 13.7 12.4 13.7 100 0.0 SE 13 15 7 8 1023.9 - 0.0
13/10:30pm 14.0 12.8 14.0 100 0.0 SE 13 17 7 9 1024.1 - 0.0
13/10:00pm 14.4 12.6 14.4 100 0.0 SE 17 20 9 11 1024.1 - 0.0
13/09:30pm 14.6 12.8 14.4 99 0.1 SE 17 20 9 11 1024.2 - 0.0
13/09:00pm 14.9 13.2 14.7 99 0.1 SE 17 22 9 12 1024.6 1024.3 0.0
13/08:30pm 15.1 13.8 14.9 99 0.1 SE 15 20 8 11 1024.6 - 0.0
13/08:00pm 15.7 14.2 15.4 98 0.2 SE 17 24 9 13 1024.3 - 0.0
13/07:30pm 16.0 14.0 15.5 97 0.3 SE 20 26 11 14 1024.0 - 0.0
13/07:00pm 16.5 14.2 14.7 89 1.0 SE 20 28 11 15 1023.8 - 0.0
13/06:30pm 17.3 14.0 14.0 81 1.9 SE 24 35 13 19 1023.5 - 0.0
13/06:00pm 18.2 15.1 11.5 65 3.7 SE 19 26 10 14 1023.2 1022.9 0.0
13/05:30pm 19.3 15.9 11.1 59 4.5 SE 20 30 11 16 1022.9 - 0.0
13/05:00pm 20.1 16.4 11.6 58 4.7 SE 22 32 12 17 1022.4 - 0.0
13/04:30pm 20.6 16.6 11.8 57 4.9 SE 24 32 13 17 1022.0 - 0.0
13/04:00pm 21.1 16.5 12.3 57 5.0 SE 28 39 15 21 1021.7 - 0.0
13/03:30pm 21.4 17.5 12.0 55 5.3 SE 24 33 13 18 1021.6 - 0.0
13/03:00pm 22.2 18.7 11.0 49 6.2 SSE 20 30 11 16 1021.5 1021.1 0.0
13/02:30pm 22.6 18.9 10.1 45 6.9 SE 20 32 11 17 1021.3 - 0.0
13/02:00pm 22.2 18.4 11.0 49 6.2 SE 22 33 12 18 1021.4 - 0.0
13/01:30pm 21.9 17.8 11.6 52 5.8 SSE 24 32 13 17 1021.5 - 0.0
13/01:00pm 21.4 17.6 11.1 52 5.7 SSE 22 30 12 16 1021.7 - 0.0
13/12:30pm 21.5 18.7 11.2 52 5.7 SSE 17 24 9 13 1021.7 - 0.0

Other Formats:

Comma delimited format used in spreadsheet applications
http://www.bom.gov.au/fwo/IDW60801/IDW60801.95646.axf

JavaScript Object Notation format (JSON) in row-major order
http://www.bom.gov.au/fwo/IDW60801/IDW60801.95646.json